Time;durP1;ratioP1;P1;durP2;ratioP2;P2;SDS_P1;SDS_P2;PMS_P1;PMS_P2;Temp;Humidity;BMP_temperature;BMP_pressure;BME280_temperature;BME280_humidity;BME280_pressure;Samples;Min_cycle;Max_cycle;Signal;HPM_P1;HPM_P2
2022/06/21 00:00:38;;;;;;;2.72;1.75;;;14.30;78.10;;;;;;4986789;28;20359;-68
2022/06/21 00:03:07;;;;;;;3.87;2.07;;;14.20;78.40;;;;;;5003447;28;20030;-68
2022/06/21 00:05:44;;;;;;;4.85;1.92;;;14.20;79.60;;;;;;4998981;28;20031;-68
2022/06/21 00:08:26;;;;;;;3.65;1.65;;;14.20;79.80;;;;;;4983291;28;20030;-68
2022/06/21 00:10:52;;;;;;;3.03;1.80;;;14.10;79.20;;;;;;4983501;28;20026;-68
2022/06/21 00:13:23;;;;;;;4.27;2.17;;;14.00;79.50;;;;;;4983919;28;20023;-68
2022/06/21 00:15:54;;;;;;;3.53;1.92;;;14.00;80.90;;;;;;4984472;28;20031;-69
2022/06/21 00:18:20;;;;;;;3.83;2.30;;;14.10;80.50;;;;;;4982739;28;20442;-68
2022/06/21 00:20:46;;;;;;;;;;;14.10;80.50;;;;;;4984602;28;20133;-68
2022/06/21 00:23:20;;;;;;;3.83;2.17;;;14.10;80.70;;;;;;4983910;28;20205;-67
2022/06/21 00:25:46;;;;;;;2.80;1.92;;;14.20;80.00;;;;;;4982863;28;20341;-67
2022/06/21 00:28:15;;;;;;;4.80;2.22;;;14.20;80.40;;;;;;4983896;28;20269;-68
2022/06/21 00:30:41;;;;;;;2.85;1.80;;;14.20;80.70;;;;;;4982799;28;20035;-68
2022/06/21 00:33:22;;;;;;;3.87;1.87;;;14.20;81.00;;;;;;4986564;28;20037;-68
2022/06/21 00:35:51;;;;;;;4.40;1.90;;;14.30;81.00;;;;;;4998376;28;20259;-67
2022/06/21 00:38:28;;;;;;;3.13;1.88;;;14.30;80.20;;;;;;4983598;28;20102;-68
2022/06/21 00:40:55;;;;;;;1.58;1.42;;;14.30;79.70;;;;;;4968454;28;20214;-68
2022/06/21 00:43:24;;;;;;;4.50;1.70;;;14.30;79.20;;;;;;4982515;28;20241;-68
2022/06/21 00:45:50;;;;;;;4.60;1.90;;;14.20;79.10;;;;;;4966912;28;20356;-68
2022/06/21 00:48:31;;;;;;;5.13;2.00;;;14.10;79.20;;;;;;4982330;28;20023;-67
2022/06/21 00:51:08;;;;;;;1.77;1.60;;;14.10;79.30;;;;;;4983247;28;20216;-68
2022/06/21 00:53:40;;;;;;;2.83;1.60;;;14.10;78.90;;;;;;5001774;28;20037;-67
2022/06/21 00:56:42;;;;;;;2.25;1.80;;;14.00;79.70;;;;;;4986455;28;20042;-67
2022/06/21 00:59:22;;;;;;;2.88;1.60;;;13.90;82.10;;;;;;4965170;28;20076;-67
2022/06/21 01:01:48;;;;;;;4.13;1.92;;;13.80;80.60;;;;;;5002739;28;20018;-67
2022/06/21 01:04:37;;;;;;;4.20;2.03;;;13.80;80.90;;;;;;4968654;28;20037;-67
2022/06/21 01:07:06;;;;;;;3.72;1.80;;;13.70;80.50;;;;;;5002548;28;20097;-67
2022/06/21 01:09:59;;;;;;;2.17;1.60;;;13.70;81.80;;;;;;5001495;28;20026;-67
2022/06/21 01:12:36;;;;;;;1.95;1.70;;;13.60;81.60;;;;;;4987900;28;20026;-67
2022/06/21 01:15:06;;;;;;;;;;;13.70;81.50;;;;;;4987212;28;20050;-67
2022/06/21 01:17:32;;;;;;;3.38;1.92;;;13.60;82.40;;;;;;4969065;28;19905;-68
2022/06/21 01:20:08;;;;;;;2.77;1.93;;;13.60;82.30;;;;;;4985620;28;20209;-67
2022/06/21 01:22:47;;;;;;;2.40;1.88;;;13.60;82.10;;;;;;5001379;28;20034;-67
2022/06/21 01:25:27;;;;;;;4.95;1.83;;;13.50;82.10;;;;;;5001089;28;20014;-67
2022/06/21 01:27:55;;;;;;;2.40;1.90;;;13.50;82.10;;;;;;5002544;28;20034;-67
2022/06/21 01:30:23;;;;;;;2.80;1.73;;;13.50;82.10;;;;;;5001589;28;20029;-68
2022/06/21 01:32:49;;;;;;;6.07;2.28;;;13.50;82.90;;;;;;5002027;28;20332;-68
2022/06/21 01:35:28;;;;;;;4.88;2.08;;;13.40;82.70;;;;;;5002592;28;20030;-67
2022/06/21 01:37:55;;;;;;;3.78;2.17;;;13.40;82.30;;;;;;4986357;28;20097;-67
2022/06/21 01:40:30;;;;;;;3.75;2.20;;;13.40;82.60;;;;;;4985373;28;20018;-67
2022/06/21 01:43:24;;;;;;;1.92;1.73;;;13.30;82.70;;;;;;5001157;28;20029;-68
2022/06/21 01:45:57;;;;;;;3.58;2.10;;;13.30;82.90;;;;;;5000930;28;20284;-68
2022/06/21 01:48:35;;;;;;;4.90;2.15;;;13.30;83.00;;;;;;4985481;28;20089;-67
2022/06/21 01:51:13;;;;;;;3.10;1.60;;;13.30;83.30;;;;;;5002465;28;20030;-67
2022/06/21 01:53:39;;;;;;;;;;;13.20;83.20;;;;;;4986272;28;20252;-67
2022/06/21 01:56:17;;;;;;;4.45;2.10;;;13.20;83.30;;;;;;5001337;28;19925;-68
2022/06/21 01:58:48;;;;;;;4.57;2.15;;;13.20;83.80;;;;;;5001213;28;20217;-67
2022/06/21 02:01:41;;;;;;;2.35;1.85;;;13.10;83.70;;;;;;4985372;28;20190;-67
2022/06/21 02:04:07;;;;;;;2.50;1.70;;;13.10;84.30;;;;;;4971913;28;20045;-68
2022/06/21 02:06:35;;;;;;;2.83;1.67;;;13.00;84.50;;;;;;4965580;28;20234;-68
2022/06/21 02:09:08;;;;;;;2.65;2.00;;;13.00;84.50;;;;;;4965749;28;20039;-67
2022/06/21 02:11:39;;;;;;;3.03;2.25;;;13.00;84.10;;;;;;4966066;28;20025;-67
2022/06/21 02:14:28;;;;;;;4.70;1.80;;;12.90;84.90;;;;;;4965728;28;20023;-67
2022/06/21 02:16:54;;;;;;;3.92;2.25;;;12.80;84.90;;;;;;4982432;28;20082;-68
2022/06/21 02:19:40;;;;;;;4.80;1.90;;;12.80;85.40;;;;;;4965681;28;20031;-67
2022/06/21 02:22:12;;;;;;;3.90;2.00;;;12.80;85.90;;;;;;4967197;28;20027;-67
2022/06/21 02:24:37;;;;;;;4.22;1.80;;;12.80;85.90;;;;;;4982166;28;20297;-67
2022/06/21 02:27:04;;;;;;;2.10;1.90;;;12.80;85.40;;;;;;4965566;28;20026;-67
2022/06/21 02:29:30;;;;;;;2.00;1.90;;;12.80;85.80;;;;;;4981696;28;20082;-67
2022/06/21 02:31:57;;;;;;;2.28;2.08;;;12.80;85.60;;;;;;4982655;28;20093;-68
2022/06/21 02:34:28;;;;;;;;;;;12.80;86.00;;;;;;4967132;28;20015;-69
2022/06/21 02:36:59;;;;;;;1.75;1.65;;;12.70;86.00;;;;;;4986414;28;20045;-68
2022/06/21 02:39:28;;;;;;;2.67;2.05;;;12.80;86.20;;;;;;4988529;28;20244;-68
2022/06/21 02:42:19;;;;;;;4.15;2.40;;;12.70;86.40;;;;;;4988545;28;20233;-68
2022/06/21 02:45:35;;;;;;;2.55;1.92;;;12.70;86.00;;;;;;4988046;28;20341;-68
2022/06/21 02:48:05;;;;;;;2.78;2.20;;;12.70;85.80;;;;;;4923110;29;20051;-68
2022/06/21 02:50:39;;;;;;;2.97;1.90;;;12.60;86.20;;;;;;4990328;28;20058;-67
2022/06/21 02:53:30;;;;;;;5.95;2.10;;;12.60;86.50;;;;;;5003896;28;20026;-67
2022/06/21 02:56:11;;;;;;;2.15;1.92;;;12.50;86.70;;;;;;4991181;28;20325;-68
2022/06/21 02:58:40;;;;;;;4.90;2.60;;;12.50;87.10;;;;;;5004055;28;20351;-67
2022/06/21 03:01:15;;;;;;;4.20;1.98;;;12.40;87.40;;;;;;5003980;28;20328;-67
2022/06/21 03:03:41;;;;;;;4.60;2.00;;;12.40;87.80;;;;;;4971445;28;20102;-67
2022/06/21 03:06:08;;;;;;;3.42;2.10;;;12.30;87.90;;;;;;5004878;28;20081;-67
2022/06/21 03:08:33;;;;;;;3.50;2.20;;;12.30;88.00;;;;;;4987663;28;20110;-68
2022/06/21 03:10:59;;;;;;;3.63;2.15;;;12.30;88.40;;;;;;4987572;28;20027;-67
2022/06/21 03:13:32;;;;;;;2.93;2.30;;;12.20;88.90;;;;;;4987296;28;20041;-67
2022/06/21 03:16:01;;;;;;;3.95;2.30;;;12.20;89.00;;;;;;4987946;28;20022;-67
2022/06/21 03:18:52;;;;;;;3.40;2.35;;;12.20;89.50;;;;;;5004398;28;20301;-67
2022/06/21 03:21:33;;;;;;;3.63;2.60;;;12.20;89.60;;;;;;4981394;28;20408;-67
2022/06/21 03:23:59;;;;;;;9.02;3.08;;;12.10;90.00;;;;;;4988751;28;20026;-67
2022/06/21 03:26:26;;;;;;;4.32;2.60;;;12.10;90.10;;;;;;5003440;28;20045;-68
2022/06/21 03:28:52;;;;;;;4.85;2.33;;;12.10;89.90;;;;;;4987391;28;20022;-67
2022/06/21 03:31:28;;;;;;;14.23;3.85;;;12.10;90.30;;;;;;5003479;28;20052;-68
2022/06/21 03:33:56;;;;;;;15.60;5.38;;;12.10;90.50;;;;;;4986986;28;20026;-67
2022/06/21 03:36:24;;;;;;;5.65;2.22;;;12.00;89.80;;;;;;4987543;28;20033;-67
2022/06/21 03:42:20;;;;;;;8.88;3.40;;;11.80;90.10;;;;;;5003739;28;20044;-67
2022/06/21 03:44:55;;;;;;;3.03;2.35;;;11.80;90.40;;;;;;4987019;28;20056;-67
2022/06/21 03:48:00;;;;;;;2.38;2.10;;;11.70;90.30;;;;;;4986950;28;20093;-67
2022/06/21 03:50:49;;;;;;;5.15;2.65;;;11.60;90.90;;;;;;4925929;28;20042;-67
2022/06/21 03:53:19;;;;;;;3.47;2.75;;;11.40;91.00;;;;;;4972414;28;20574;-67
2022/06/21 03:55:50;;;;;;;4.78;2.95;;;11.30;91.30;;;;;;5002927;28;20038;-67
2022/06/21 03:58:43;;;;;;;3.33;2.25;;;11.30;91.60;;;;;;5002821;28;20217;-67
2022/06/21 04:01:16;;;;;;;6.47;2.72;;;11.40;91.60;;;;;;5003998;28;20041;-67
2022/06/21 04:04:15;;;;;;;2.90;2.67;;;11.40;91.60;;;;;;5003350;28;20022;-67
2022/06/21 04:07:13;;;;;;;3.42;2.58;;;11.40;91.70;;;;;;4988413;28;20026;-68
2022/06/21 04:09:51;;;;;;;6.72;2.65;;;11.50;91.70;;;;;;5000749;28;20030;-67
2022/06/21 04:12:33;;;;;;;3.13;2.63;;;11.40;91.90;;;;;;5002625;28;20018;-67
2022/06/21 04:15:09;;;;;;;6.78;3.08;;;11.40;91.90;;;;;;4973549;28;20068;-67
2022/06/21 04:17:43;;;;;;;6.32;2.80;;;11.40;91.70;;;;;;5003306;28;20237;-67
2022/06/21 04:20:31;;;;;;;4.35;2.97;;;11.20;91.50;;;;;;4971323;28;20050;-67
2022/06/21 04:23:03;;;;;;;7.32;3.40;;;11.10;91.60;;;;;;4987057;28;20026;-67
2022/06/21 04:25:32;;;;;;;7.60;3.70;;;11.10;92.00;;;;;;5001403;28;20209;-66
2022/06/21 04:28:22;;;;;;;5.47;4.05;;;11.10;92.30;;;;;;5002911;28;20030;-66
2022/06/21 04:31:15;;;;;;;7.35;4.03;;;11.00;92.40;;;;;;4986087;28;20030;-66
2022/06/21 04:33:57;;;;;;;5.18;3.55;;;11.00;92.60;;;;;;5001831;28;20026;-66
2022/06/21 04:36:32;;;;;;;5.55;3.53;;;11.10;92.60;;;;;;5003016;28;20026;-66
2022/06/21 04:39:12;;;;;;;5.05;3.70;;;11.10;92.40;;;;;;4987117;28;20089;-66
2022/06/21 04:41:51;;;;;;;4.53;3.38;;;11.10;92.50;;;;;;5001971;28;20355;-66
2022/06/21 04:44:26;;;;;;;4.15;3.22;;;11.20;92.60;;;;;;4986927;28;20037;-66
2022/06/21 04:47:22;;;;;;;4.53;2.88;;;11.20;92.60;;;;;;5001852;28;20045;-66
2022/06/21 04:49:56;;;;;;;5.78;3.17;;;11.40;92.80;;;;;;4986509;28;20030;-66
2022/06/21 04:52:25;;;;;;;6.45;3.30;;;11.70;92.40;;;;;;5002099;28;20255;-66
2022/06/21 04:54:50;;;;;;;4.72;3.30;;;12.00;92.00;;;;;;5001737;28;20030;-66
2022/06/21 04:57:24;;;;;;;3.90;2.92;;;11.90;91.40;;;;;;5001854;28;20030;-66
2022/06/21 05:00:03;;;;;;;6.07;2.55;;;12.00;91.40;;;;;;4987627;28;20329;-66
2022/06/21 05:02:44;;;;;;;7.43;3.20;;;12.10;91.70;;;;;;4989522;28;20053;-66
2022/06/21 05:05:22;;;;;;;6.07;3.20;;;12.20;91.70;;;;;;4986910;28;20026;-64
2022/06/21 05:07:52;;;;;;;4.38;3.30;;;12.30;91.60;;;;;;5003115;28;20023;-64
2022/06/21 05:10:36;;;;;;;17.00;4.88;;;12.20;91.20;;;;;;5013157;28;20017;-64
2022/06/21 05:13:06;;;;;;;5.10;3.13;;;12.30;91.50;;;;;;4989230;28;20081;-65
2022/06/21 05:15:35;;;;;;;4.20;2.78;;;12.40;91.70;;;;;;4969725;28;20377;-68
2022/06/21 05:18:08;;;;;;;6.68;2.83;;;12.40;91.80;;;;;;4970090;28;20030;-68
2022/06/21 05:20:35;;;;;;;4.88;2.65;;;12.50;91.60;;;;;;5008440;28;20030;-68
2022/06/21 05:23:04;;;;;;;7.63;3.28;;;12.50;91.30;;;;;;5001151;28;20033;-68
2022/06/21 05:25:38;;;;;;;4.35;2.60;;;12.50;91.30;;;;;;5007898;28;20061;-67
2022/06/21 05:28:26;;;;;;;3.88;2.60;;;12.50;91.00;;;;;;5008502;28;20350;-67
2022/06/21 05:31:23;;;;;;;6.00;3.10;;;12.50;91.10;;;;;;5007609;28;20042;-67
2022/06/21 05:33:52;;;;;;;6.05;3.30;;;12.60;91.10;;;;;;4984280;28;20045;-68
2022/06/21 05:36:32;;;;;;;6.63;4.78;;;12.80;91.30;;;;;;5003160;28;20030;-68
2022/06/21 05:39:20;;;;;;;6.32;3.15;;;12.90;91.50;;;;;;4981817;28;20033;-67
2022/06/21 05:41:47;;;;;;;4.43;3.00;;;12.90;91.20;;;;;;4991106;28;20232;-68
2022/06/21 05:44:20;;;;;;;9.77;2.90;;;13.10;91.20;;;;;;5020449;28;20029;-68
2022/06/21 05:46:54;;;;;;;9.07;2.80;;;13.10;90.90;;;;;;5020711;28;20044;-68
2022/06/21 05:49:27;;;;;;;4.88;2.50;;;13.20;91.10;;;;;;4988959;28;20081;-68
2022/06/21 05:51:55;;;;;;;5.10;3.00;;;13.30;91.10;;;;;;4973438;28;20022;-68
2022/06/21 05:54:23;;;;;;;4.53;3.00;;;13.40;90.50;;;;;;5020444;28;20331;-68
2022/06/21 05:56:49;;;;;;;5.00;2.58;;;13.50;90.50;;;;;;5020746;28;20062;-67
2022/06/21 05:59:17;;;;;;;4.60;3.07;;;13.50;90.50;;;;;;5005334;28;20061;-68
2022/06/21 06:02:02;;;;;;;4.30;2.72;;;13.60;90.80;;;;;;5002090;28;20026;-68
2022/06/21 06:04:41;;;;;;;3.67;2.90;;;13.70;90.30;;;;;;4984930;28;20022;-67
2022/06/21 06:07:14;;;;;;;6.03;3.17;;;13.80;90.50;;;;;;4985152;28;20033;-68
2022/06/21 06:09:44;;;;;;;4.82;3.38;;;13.90;90.20;;;;;;5000769;28;20244;-68
2022/06/21 06:12:19;;;;;;;8.80;3.58;;;14.00;90.00;;;;;;4988099;28;20077;-68
2022/06/21 06:15:26;;;;;;;5.28;2.65;;;14.10;88.80;;;;;;4988580;28;20093;-68
2022/06/21 06:18:22;;;;;;;10.77;3.65;;;14.10;89.00;;;;;;4994408;28;20034;-67
2022/06/21 06:21:23;;;;;;;9.40;4.15;;;14.20;89.10;;;;;;4941792;28;20086;-67
2022/06/21 06:24:02;;;;;;;6.30;3.00;;;14.30;88.40;;;;;;5005555;28;20026;-68
2022/06/21 06:26:33;;;;;;;5.35;3.10;;;14.40;88.30;;;;;;4988435;28;20027;-67
2022/06/21 06:29:36;;;;;;;7.78;2.95;;;14.40;89.10;;;;;;5005406;28;20026;-67
2022/06/21 06:32:39;;;;;;;5.78;2.83;;;14.50;88.50;;;;;;5004294;28;20327;-68
2022/06/21 06:35:08;;;;;;;4.20;2.55;;;14.60;88.00;;;;;;4984629;28;20026;-68
2022/06/21 06:37:36;;;;;;;4.43;2.83;;;14.70;88.40;;;;;;4985193;28;20277;-68
2022/06/21 06:40:07;;;;;;;4.70;2.90;;;14.70;88.60;;;;;;4984810;28;20019;-68
2022/06/21 06:42:37;;;;;;;8.05;4.70;;;14.80;88.00;;;;;;4968694;28;20023;-68
2022/06/21 06:45:14;;;;;;;4.00;3.30;;;14.80;86.00;;;;;;4985208;28;20026;-68
2022/06/21 06:47:52;;;;;;;6.43;3.60;;;14.90;85.70;;;;;;4969261;28;20031;-68
2022/06/21 06:50:29;;;;;;;6.18;3.40;;;15.00;86.10;;;;;;4970049;28;20086;-67
2022/06/21 06:53:16;;;;;;;5.10;2.88;;;15.10;86.00;;;;;;4984334;28;20037;-68
2022/06/21 06:55:50;;;;;;;5.22;3.13;;;15.10;85.40;;;;;;4972071;28;20027;-68
2022/06/21 06:58:45;;;;;;;8.50;3.10;;;15.20;85.80;;;;;;4984400;28;20027;-68
2022/06/21 07:01:20;;;;;;;4.30;2.75;;;15.20;86.20;;;;;;5000046;28;20116;-68
2022/06/21 07:04:03;;;;;;;8.38;3.20;;;15.30;85.90;;;;;;4983937;28;20027;-68
2022/06/21 07:06:35;;;;;;;5.15;2.95;;;15.40;86.00;;;;;;4986977;28;20030;-68
2022/06/21 07:09:19;;;;;;;4.70;2.83;;;15.40;86.10;;;;;;5004821;28;20027;-68
2022/06/21 07:12:08;;;;;;;3.38;2.72;;;15.50;87.00;;;;;;4989543;28;20022;-68
2022/06/21 07:14:34;;;;;;;6.85;3.08;;;15.50;86.90;;;;;;5003295;28;20024;-68
2022/06/21 07:17:48;;;;;;;6.03;3.00;;;15.60;85.40;;;;;;4987576;28;20094;-68
2022/06/21 07:20:36;;;;;;;5.40;3.20;;;15.70;86.10;;;;;;4944381;29;20063;-68
2022/06/21 07:23:02;;;;;;;8.13;3.22;;;15.80;86.50;;;;;;4943307;29;20099;-68
2022/06/21 07:26:05;;;;;;;4.60;2.73;;;15.80;86.80;;;;;;4979229;28;20045;-68
2022/06/21 07:28:49;;;;;;;5.75;2.92;;;15.90;86.90;;;;;;4950540;28;20117;-68
2022/06/21 07:31:22;;;;;;;6.68;3.13;;;16.00;86.90;;;;;;5004197;28;20053;-68
2022/06/21 07:34:23;;;;;;;5.90;2.95;;;16.10;86.10;;;;;;4981324;28;20097;-68
2022/06/21 07:36:59;;;;;;;5.28;2.88;;;16.20;85.90;;;;;;4988802;28;20045;-68
2022/06/21 07:39:48;;;;;;;4.80;2.97;;;16.30;85.60;;;;;;4987745;28;20033;-68
2022/06/21 07:42:19;;;;;;;6.28;3.88;;;16.40;84.80;;;;;;4987058;28;20077;-68
2022/06/21 07:45:07;;;;;;;5.47;2.97;;;16.50;84.90;;;;;;5002784;28;20027;-68
2022/06/21 07:48:16;;;;;;;7.47;2.72;;;16.60;84.20;;;;;;5003279;28;20026;-67
2022/06/21 07:50:52;;;;;;;6.55;3.50;;;16.60;79.50;;;;;;4956874;28;20085;-68
2022/06/21 07:53:35;;;;;;;7.60;2.92;;;16.70;79.10;;;;;;4987496;28;20105;-68
2022/06/21 07:56:27;;;;;;;6.50;2.97;;;16.90;79.30;;;;;;4987184;28;20021;-68
2022/06/21 07:59:04;;;;;;;4.22;2.90;;;16.90;76.70;;;;;;5002599;28;20340;-68
2022/06/21 08:07:42;;;;;;;5.53;3.00;;;17.10;76.50;;;;;;5002775;28;20224;-68
2022/06/21 08:10:17;;;;;;;7.20;2.53;;;17.20;75.10;;;;;;5002598;28;20018;-68
2022/06/21 08:12:43;;;;;;;4.45;2.47;;;17.20;76.10;;;;;;5002290;28;20073;-68
2022/06/21 08:15:09;;;;;;;7.27;2.93;;;17.20;77.30;;;;;;5003485;28;20077;-68
2022/06/21 08:17:42;;;;;;;3.87;2.67;;;17.30;76.90;;;;;;5002398;28;20046;-68
2022/06/21 08:20:15;;;;;;;5.05;2.70;;;17.30;77.50;;;;;;5002265;28;20252;-68
2022/06/21 08:22:54;;;;;;;4.95;2.40;;;17.30;74.60;;;;;;5002012;28;20032;-68
2022/06/21 08:25:37;;;;;;;8.65;2.55;;;17.30;74.80;;;;;;5002413;28;20303;-68
2022/06/21 08:28:30;;;;;;;3.97;2.00;;;17.40;71.90;;;;;;5002122;28;20233;-67
2022/06/21 08:30:58;;;;;;;5.82;2.35;;;17.50;72.80;;;;;;5002416;28;20030;-68
2022/06/21 08:33:43;;;;;;;4.68;2.10;;;17.60;71.60;;;;;;5002524;28;20044;-68
2022/06/21 08:36:18;;;;;;;6.88;2.42;;;17.80;70.80;;;;;;4998751;28;20324;-68
2022/06/21 08:39:04;;;;;;;5.55;2.47;;;17.90;71.50;;;;;;4982831;28;20032;-67
2022/06/21 08:42:11;;;;;;;6.05;2.97;;;17.90;70.60;;;;;;5002123;28;20030;-68
2022/06/21 08:45:43;;;;;;;5.30;2.28;;;18.00;71.50;;;;;;5002143;28;20022;-68
2022/06/21 08:48:45;;;;;;;6.47;2.28;;;18.00;72.60;;;;;;5003110;28;20025;-67
2022/06/21 08:51:46;;;;;;;4.80;2.40;;;18.10;74.30;;;;;;5003065;28;20335;-68
2022/06/21 08:54:41;;;;;;;5.57;2.38;;;18.10;71.30;;;;;;5001803;28;20233;-68
2022/06/21 08:57:18;;;;;;;4.75;1.77;;;18.10;71.60;;;;;;5001987;28;20022;-68
2022/06/21 09:00:27;;;;;;;4.40;2.23;;;18.20;72.00;;;;;;5001681;28;20348;-68
2022/06/21 09:03:33;;;;;;;4.10;2.15;;;18.20;72.60;;;;;;5001488;28;20261;-68
2022/06/21 09:06:10;;;;;;;8.15;2.38;;;18.20;73.20;;;;;;5002662;28;20313;-68
2022/06/21 09:08:58;;;;;;;4.15;1.88;;;18.30;73.00;;;;;;5002705;28;20026;-67
2022/06/21 09:11:44;;;;;;;4.13;2.80;;;18.40;69.60;;;;;;5002655;28;20105;-68
2022/06/21 09:14:18;;;;;;;4.07;2.28;;;18.50;69.90;;;;;;5001426;28;20026;-68
2022/06/21 09:17:02;;;;;;;8.43;2.90;;;18.50;68.40;;;;;;5001586;28;20026;-68
2022/06/21 09:20:17;;;;;;;4.15;1.98;;;18.50;70.20;;;;;;5001196;28;20030;-68
2022/06/21 09:23:09;;;;;;;2.50;1.75;;;18.60;68.60;;;;;;5002368;28;20033;-68
2022/06/21 09:25:48;;;;;;;5.55;2.10;;;18.70;70.00;;;;;;5001691;28;20064;-69
2022/06/21 09:28:30;;;;;;;5.55;2.63;;;18.80;70.90;;;;;;5002433;28;20037;-68
2022/06/21 09:31:02;;;;;;;3.22;1.95;;;18.80;69.40;;;;;;5002575;28;20101;-68
2022/06/21 09:33:49;;;;;;;4.55;1.67;;;19.00;68.00;;;;;;5000981;28;20019;-68
2022/06/21 09:36:55;;;;;;;9.95;5.40;;;19.20;62.10;;;;;;4981832;28;20110;-68
2022/06/21 09:39:31;;;;;;;4.07;1.75;;;19.40;59.90;;;;;;4981933;28;20022;-68
2022/06/21 09:42:10;;;;;;;8.30;3.33;;;19.50;59.70;;;;;;4996940;28;20081;-68
2022/06/21 09:45:00;;;;;;;2.95;1.73;;;19.60;59.90;;;;;;4984528;28;20026;-69
2022/06/21 09:47:50;;;;;;;4.82;1.63;;;19.70;60.40;;;;;;4990612;28;20225;-68
2022/06/21 09:50:46;;;;;;;2.17;1.52;;;19.70;60.40;;;;;;4991211;28;20030;-68
2022/06/21 09:53:38;;;;;;;2.03;1.60;;;19.80;60.20;;;;;;5005867;28;20037;-68
2022/06/21 09:56:43;;;;;;;6.00;1.70;;;19.90;62.10;;;;;;5005993;28;20022;-68
2022/06/21 09:59:26;;;;;;;4.40;1.42;;;20.00;61.00;;;;;;4991291;28;20026;-68
2022/06/21 10:02:05;;;;;;;2.15;1.38;;;20.10;62.00;;;;;;4989900;28;20030;-68
2022/06/21 10:04:50;;;;;;;6.65;2.08;;;20.30;59.00;;;;;;5004581;28;20041;-69
2022/06/21 10:07:45;;;;;;;4.35;1.63;;;20.30;58.60;;;;;;4990899;28;20081;-69
2022/06/21 10:10:18;;;;;;;3.20;1.40;;;20.30;59.40;;;;;;5004910;28;20049;-68
2022/06/21 10:13:13;;;;;;;4.05;1.63;;;20.40;61.40;;;;;;5004282;28;20383;-68
2022/06/21 10:16:13;;;;;;;3.58;1.90;;;20.50;58.20;;;;;;5004976;28;20033;-68
2022/06/21 10:19:03;;;;;;;4.72;1.85;;;20.70;59.20;;;;;;5005494;28;20022;-68
2022/06/21 10:21:41;;;;;;;3.67;1.77;;;20.80;57.40;;;;;;5005680;28;20114;-68
2022/06/21 10:24:36;;;;;;;3.40;1.58;;;20.80;58.90;;;;;;5005382;28;20102;-68
2022/06/21 10:27:33;;;;;;;5.18;1.40;;;20.80;56.80;;;;;;5004621;28;20052;-68
2022/06/21 10:30:20;;;;;;;3.45;1.55;;;20.80;56.70;;;;;;5005602;28;20078;-68
2022/06/21 10:33:31;;;;;;;3.35;1.35;;;20.90;59.00;;;;;;5004317;28;20025;-68
2022/06/21 10:36:08;;;;;;;5.30;1.60;;;21.20;58.60;;;;;;5004393;28;20027;-68
2022/06/21 10:38:55;;;;;;;;;;;21.30;57.80;;;;;;5004659;28;20155;-68
2022/06/21 10:45:18;;;;;;;7.80;3.10;;;21.40;57.00;;;;;;5004919;28;20057;-68
2022/06/21 10:47:56;;;;;;;7.68;2.05;;;21.50;57.90;;;;;;5005132;28;20030;-69
2022/06/21 10:50:36;;;;;;;4.47;1.40;;;21.50;55.90;;;;;;5004993;28;20041;-68
2022/06/21 10:53:17;;;;;;;3.22;1.42;;;21.70;53.90;;;;;;4988463;28;20026;-68
2022/06/21 10:55:50;;;;;;;5.97;1.33;;;21.80;52.50;;;;;;5005127;28;20250;-68
2022/06/21 10:58:40;;;;;;;4.03;1.40;;;22.00;54.60;;;;;;5002559;28;20030;-68
2022/06/21 11:01:21;;;;;;;2.90;1.25;;;22.20;54.00;;;;;;4988104;28;20028;-68
2022/06/21 11:04:02;;;;;;;1.75;1.00;;;22.30;50.40;;;;;;5003276;28;20321;-68
2022/06/21 11:06:48;;;;;;;4.47;1.58;;;22.40;52.40;;;;;;5004714;28;20207;-68
2022/06/21 11:09:31;;;;;;;4.35;1.30;;;22.50;49.90;;;;;;4972376;28;20313;-68
2022/06/21 11:15:36;;;;;;;3.70;1.83;;;22.60;52.60;;;;;;5003517;28;20110;-68
2022/06/21 11:18:28;;;;;;;2.28;1.10;;;22.80;49.40;;;;;;5003549;28;20089;-68
2022/06/21 11:21:03;;;;;;;10.10;2.05;;;22.90;48.50;;;;;;5003495;28;20022;-69
2022/06/21 11:23:56;;;;;;;2.28;1.60;;;23.00;48.90;;;;;;5003383;28;20018;-69
2022/06/21 11:27:00;;;;;;;2.80;1.10;;;23.10;48.00;;;;;;5004438;28;20101;-69
2022/06/21 11:29:38;;;;;;;3.95;1.45;;;23.20;48.70;;;;;;4990486;28;20137;-68
2022/06/21 11:32:19;;;;;;;6.65;2.10;;;23.20;47.20;;;;;;5004436;28;20022;-68
2022/06/21 11:35:34;;;;;;;4.57;1.50;;;23.20;49.00;;;;;;5003990;28;20037;-68
2022/06/21 11:38:40;;;;;;;3.42;1.30;;;23.30;49.40;;;;;;5003409;28;20064;-68
2022/06/21 11:42:04;;;;;;;3.97;1.77;;;23.40;49.50;;;;;;4973943;28;20048;-68
2022/06/21 11:44:25;;;;;;;3.97;1.73;;;23.60;49.70;;;;;;5004033;28;20038;-68
2022/06/21 11:46:57;;;;;;;4.18;1.90;;;23.60;47.70;;;;;;4987919;28;20030;-68
2022/06/21 11:49:58;;;;;;;7.75;1.83;;;23.70;49.20;;;;;;5002694;28;20026;-68
2022/06/21 11:52:36;;;;;;;4.70;1.83;;;23.80;50.80;;;;;;5000872;28;20034;-68
2022/06/21 11:55:31;;;;;;;3.22;1.27;;;24.00;50.80;;;;;;5003943;28;20022;-68
2022/06/21 11:58:22;;;;;;;3.63;1.50;;;24.30;48.90;;;;;;5002926;28;20033;-68
2022/06/21 12:00:49;;;;;;;4.57;1.30;;;24.40;47.80;;;;;;5002813;28;20019;-68
2022/06/21 12:03:34;;;;;;;5.03;1.52;;;24.50;47.40;;;;;;5002520;28;20049;-69
2022/06/21 12:06:32;;;;;;;5.65;1.83;;;24.40;47.00;;;;;;4989829;28;20245;-69
2022/06/21 12:09:35;;;;;;;3.28;1.35;;;24.40;47.30;;;;;;4957222;28;20034;-69
2022/06/21 12:12:28;;;;;;;6.45;2.05;;;24.40;49.50;;;;;;5003667;28;20346;-69
2022/06/21 12:15:33;;;;;;;2.70;1.55;;;24.40;47.20;;;;;;5002509;28;20233;-68
2022/06/21 12:18:24;;;;;;;4.25;1.60;;;24.30;48.80;;;;;;5002665;28;20048;-69
2022/06/21 12:21:13;;;;;;;4.32;1.52;;;24.40;49.80;;;;;;5002300;28;20125;-69
2022/06/21 12:23:52;;;;;;;1.08;0.90;;;24.40;47.60;;;;;;4987469;28;20042;-68
2022/06/21 12:26:21;;;;;;;4.68;1.45;;;24.40;45.50;;;;;;4987736;28;20022;-68
2022/06/21 12:28:48;;;;;;;2.72;1.30;;;24.50;45.10;;;;;;4986281;28;20022;-69
2022/06/21 12:31:30;;;;;;;7.63;1.92;;;24.50;47.40;;;;;;4986157;28;20014;-69
2022/06/21 12:34:14;;;;;;;3.50;1.42;;;24.60;48.40;;;;;;4986642;28;20026;-69
2022/06/21 12:36:52;;;;;;;6.15;1.63;;;24.50;45.80;;;;;;4988026;28;20026;-68
2022/06/21 12:39:59;;;;;;;6.13;1.60;;;24.50;46.30;;;;;;4985763;28;20033;-68
2022/06/21 12:42:36;;;;;;;2.58;1.27;;;24.50;48.70;;;;;;5002030;28;20025;-69
2022/06/21 12:45:19;;;;;;;2.90;1.27;;;24.40;48.40;;;;;;5002838;28;20022;-68
2022/06/21 12:48:22;;;;;;;4.43;1.40;;;24.50;47.20;;;;;;5001885;28;20022;-68
2022/06/21 12:51:15;;;;;;;6.18;1.95;;;24.40;45.40;;;;;;5002908;28;20022;-68
2022/06/21 12:54:07;;;;;;;2.13;1.20;;;24.50;49.80;;;;;;5001692;28;20194;-68
2022/06/21 12:56:38;;;;;;;3.47;1.45;;;24.60;46.80;;;;;;5001893;28;20113;-68
2022/06/21 12:59:12;;;;;;;3.63;1.23;;;24.90;47.40;;;;;;5002817;28;20030;-68
2022/06/21 13:01:59;;;;;;;4.22;1.70;;;25.20;47.20;;;;;;5002551;28;20090;-69
2022/06/21 13:04:53;;;;;;;1.55;1.30;;;25.50;47.90;;;;;;5001220;28;20037;-68
2022/06/21 13:08:22;;;;;;;3.63;1.38;;;25.60;44.10;;;;;;5002638;28;20065;-68
2022/06/21 13:11:14;;;;;;;3.75;1.30;;;25.80;45.60;;;;;;5002744;28;20068;-69
2022/06/21 13:13:46;;;;;;;2.38;1.17;;;26.00;41.60;;;;;;5002611;28;20062;-68
2022/06/21 13:16:50;;;;;;;3.72;1.27;;;26.20;41.40;;;;;;5002715;28;20022;-69
2022/06/21 13:19:43;;;;;;;1.92;1.20;;;26.40;42.20;;;;;;4989425;28;20038;-69
2022/06/21 13:23:00;;;;;;;4.30;1.30;;;26.50;41.90;;;;;;5001224;28;20093;-68
2022/06/21 13:25:35;;;;;;;2.70;1.25;;;26.60;39.80;;;;;;4972086;28;20045;-69
2022/06/21 13:28:24;;;;;;;2.25;1.08;;;26.70;41.30;;;;;;5001346;28;20018;-69
2022/06/21 13:31:02;;;;;;;4.38;1.33;;;27.00;40.90;;;;;;5001440;28;20050;-69
2022/06/21 13:33:37;;;;;;;3.70;1.20;;;27.30;40.20;;;;;;5002391;28;20061;-69
2022/06/21 13:36:20;;;;;;;2.55;1.25;;;27.30;39.00;;;;;;5002133;28;20229;-69
2022/06/21 13:38:58;;;;;;;2.30;1.15;;;27.50;42.40;;;;;;5001194;28;20102;-69
2022/06/21 13:45:05;;;;;;;1.00;0.90;;;28.30;40.60;;;;;;4997650;28;20054;-69
2022/06/21 13:47:54;;;;;;;2.35;0.82;;;28.90;37.60;;;;;;4987066;28;20034;-69
2022/06/21 13:50:43;;;;;;;1.35;0.80;;;29.10;39.20;;;;;;4988039;28;20053;-69
2022/06/21 13:53:22;;;;;;;1.77;1.00;;;29.40;39.90;;;;;;5000988;28;20022;-69
2022/06/21 13:56:01;;;;;;;2.78;0.90;;;29.80;37.30;;;;;;4987002;28;20033;-69
2022/06/21 13:58:42;;;;;;;1.77;1.10;;;30.10;34.80;;;;;;4986739;28;20030;-69
2022/06/21 14:01:16;;;;;;;4.88;1.15;;;30.20;36.40;;;;;;4986917;28;20069;-69
2022/06/21 14:04:05;;;;;;;3.83;1.20;;;30.20;34.30;;;;;;5002084;28;20025;-70
2022/06/21 14:07:08;;;;;;;1.70;0.82;;;30.80;36.50;;;;;;5002133;28;20038;-69
2022/06/21 14:09:46;;;;;;;1.60;1.05;;;31.30;34.60;;;;;;4985597;28;20257;-69
2022/06/21 14:12:34;;;;;;;1.85;1.00;;;31.70;36.00;;;;;;4985747;28;20026;-69
2022/06/21 14:15:01;;;;;;;4.43;1.10;;;31.60;34.70;;;;;;4987014;28;20543;-69
2022/06/21 14:17:49;;;;;;;3.00;1.70;;;31.60;36.90;;;;;;5001064;28;20301;-70
2022/06/21 14:20:51;;;;;;;3.33;1.17;;;31.80;35.80;;;;;;4986395;28;20033;-70